Time,TemperatureF,DewpointF,PressureIn,WindDirection,WindDirectionDegrees,WindSpeedMPH,WindSpeedGustMPH,Humidity,HourlyPrecipIn,Conditions,Clouds,dailyrainin,SoftwareType,DateUTC
2013-03-21 13:57:00,40.0,25.8,30.16,SW,225,14.3,14.3,57,0.00,,,0.00,WUHU216HW,2013-03-21 20:57:00,
2013-03-21 17:02:00,41.0,23.8,30.14,SW,225,10.5,15.0,50,0.00,,,0.00,WUHU216HW,2013-03-22 00:02:00,
2013-03-21 17:07:00,40.7,23.0,30.14,WSW,248,12.1,19.0,49,0.00,,,0.00,WUHU216HW,2013-03-22 00:07:00,
2013-03-21 17:12:00,40.7,23.0,30.14,WSW,248,12.3,19.0,49,0.00,,,0.00,WUHU216HW,2013-03-22 00:12:00,
2013-03-21 17:17:00,39.6,22.9,30.14,West,270,6.7,13.0,51,0.00,,,0.00,WUHU216HW,2013-03-22 00:17:00,
2013-03-21 17:22:00,38.9,22.7,30.14,WSW,248,10.5,13.0,52,0.00,,,0.00,WUHU216HW,2013-03-22 00:22:00,
2013-03-21 17:27:00,38.9,23.1,30.14,SSW,203,5.4,10.5,53,0.00,,,0.00,WUHU216HW,2013-03-22 00:27:00,
2013-03-21 17:32:00,38.9,23.1,30.14,West,270,3.4,9.2,53,0.00,,,0.00,WUHU216HW,2013-03-22 00:32:00,
2013-03-21 17:37:00,39.2,23.1,30.14,West,270,7.6,9.4,52,0.00,,,0.00,WUHU216HW,2013-03-22 00:37:00,
2013-03-21 17:42:00,38.9,22.7,30.14,West,270,10.1,10.1,52,0.00,,,0.00,WUHU216HW,2013-03-22 00:42:00,
2013-03-21 17:47:00,38.3,22.6,30.14,South,180,11.2,11.2,53,0.00,,,0.00,WUHU216HW,2013-03-22 00:47:00,
2013-03-21 17:52:00,38.2,23.3,30.14,WSW,248,4.0,11.2,55,0.00,,,0.00,WUHU216HW,2013-03-22 00:52:00,
2013-03-21 17:57:00,38.3,24.0,30.14,WSW,248,8.9,11.2,56,0.00,,,0.00,WUHU216HW,2013-03-22 00:57:00,
2013-03-21 18:02:00,38.3,24.4,30.14,NW,315,13.6,13.6,57,0.00,,,0.00,WUHU216HW,2013-03-22 01:02:00,
2013-03-21 18:07:00,38.7,25.6,30.15,WSW,248,7.6,13.6,59,0.00,,,0.00,WUHU216HW,2013-03-22 01:07:00,
2013-03-21 18:12:00,39.1,25.8,30.15,WSW,248,8.5,8.9,59,0.00,,,0.00,WUHU216HW,2013-03-22 01:12:00,
2013-03-21 18:17:00,38.5,26.2,30.15,SSW,203,9.8,11.0,61,0.00,,,0.00,WUHU216HW,2013-03-22 01:17:00,
2013-03-21 18:22:00,38.5,26.2,30.14,SW,225,9.6,11.0,61,0.00,,,0.00,WUHU216HW,2013-03-22 01:22:00,
2013-03-21 18:27:00,38.0,26.1,30.15,WSW,248,11.2,11.2,62,0.00,,,0.00,WUHU216HW,2013-03-22 01:27:00,
2013-03-21 18:32:00,37.6,26.1,30.15,SW,225,3.4,11.2,63,0.00,,,0.00,WUHU216HW,2013-03-22 01:32:00,
2013-03-21 18:37:00,37.4,26.4,30.15,WSW,248,6.3,6.9,64,0.00,,,0.00,WUHU216HW,2013-03-22 01:37:00,
2013-03-21 18:42:00,37.3,26.2,30.15,WSW,248,5.4,6.3,64,0.00,,,0.00,WUHU216HW,2013-03-22 01:42:00,
2013-03-21 18:47:00,36.7,25.7,30.15,WSW,248,4.0,6.7,64,0.00,,,0.00,WUHU216HW,2013-03-22 01:47:00,
2013-03-21 18:52:00,36.4,24.6,30.15,West,270,10.1,10.1,62,0.00,,,0.00,WUHU216HW,2013-03-22 01:52:00,
2013-03-21 18:57:00,35.8,23.4,30.15,WSW,248,7.4,10.1,60,0.00,,,0.00,WUHU216HW,2013-03-22 01:57:00,
2013-03-21 19:02:00,35.6,23.2,30.15,WNW,293,5.1,9.6,60,0.00,,,0.00,WUHU216HW,2013-03-22 02:02:00,
2013-03-21 19:07:00,35.3,23.2,30.15,WNW,293,4.0,7.4,61,0.00,,,0.00,WUHU216HW,2013-03-22 02:07:00,
2013-03-21 19:12:00,35.1,23.0,30.15,WSW,248,4.3,8.5,61,0.00,,,0.00,WUHU216HW,2013-03-22 02:12:00,
2013-03-21 19:17:00,34.9,22.9,30.15,WSW,248,6.7,8.5,61,0.00,,,0.00,WUHU216HW,2013-03-22 02:17:00,
2013-03-21 19:22:00,34.9,22.5,30.15,SW,225,4.0,7.8,60,0.00,,,0.00,WUHU216HW,2013-03-22 02:22:00,
2013-03-21 19:27:00,35.1,22.7,30.15,SW,225,4.7,8.5,60,0.00,,,0.00,WUHU216HW,2013-03-22 02:27:00,
2013-03-21 19:32:00,35.1,22.7,30.15,West,270,4.7,8.5,60,0.00,,,0.00,WUHU216HW,2013-03-22 02:32:00,
2013-03-21 19:37:00,35.3,22.9,30.15,SW,225,5.8,6.9,60,0.00,,,0.00,WUHU216HW,2013-03-22 02:37:00,
2013-03-21 19:42:00,35.3,23.2,30.16,NW,315,7.8,8.3,61,0.00,,,0.00,WUHU216HW,2013-03-22 02:42:00,
2013-03-21 19:47:00,35.3,23.2,30.16,WSW,248,5.4,8.3,61,0.00,,,0.00,WUHU216HW,2013-03-22 02:47:00,
2013-03-21 19:52:00,35.3,23.6,30.15,SW,225,6.5,9.2,62,0.00,,,0.00,WUHU216HW,2013-03-22 02:52:00,
2013-03-21 19:57:00,35.1,23.8,30.16,WNW,293,8.1,9.2,63,0.00,,,0.00,WUHU216HW,2013-03-22 02:57:00,
2013-03-21 20:02:00,35.1,24.5,30.16,SW,225,6.9,8.7,65,0.00,,,0.00,WUHU216HW,2013-03-22 03:02:00,
2013-03-21 20:07:00,34.7,25.6,30.16,WNW,293,4.9,11.4,69,0.00,,,0.00,WUHU216HW,2013-03-22 03:07:00,
2013-03-21 20:12:00,34.4,25.9,30.16,SW,225,6.0,11.4,71,0.00,,,0.00,WUHU216HW,2013-03-22 03:12:00,
2013-03-21 20:17:00,34.0,25.8,30.16,West,270,5.4,8.7,72,0.00,,,0.00,WUHU216HW,2013-03-22 03:17:00,
2013-03-21 20:22:00,33.7,25.8,30.16,SW,225,4.3,6.9,73,0.00,,,0.00,WUHU216HW,2013-03-22 03:22:00,
2013-03-21 20:27:00,33.5,26.0,30.16,SW,225,2.0,5.4,74,0.00,,,0.00,WUHU216HW,2013-03-22 03:27:00,
2013-03-21 20:32:00,32.9,26.2,30.16,SW,225,4.0,4.5,76,0.00,,,0.00,WUHU216HW,2013-03-22 03:32:00,
2013-03-21 20:37:00,32.8,26.0,30.16,SSW,203,4.7,4.7,76,0.00,,,0.00,WUHU216HW,2013-03-22 03:37:00,
2013-03-21 20:42:00,32.8,26.6,30.16,SW,225,1.3,4.7,78,0.00,,,0.00,WUHU216HW,2013-03-22 03:42:00,
2013-03-21 20:47:00,32.4,26.3,30.16,WSW,248,6.3,6.3,78,0.00,,,0.00,WUHU216HW,2013-03-22 03:47:00,
2013-03-21 20:52:00,32.2,26.5,30.16,SW,225,5.4,6.3,79,0.00,,,0.00,WUHU216HW,2013-03-22 03:52:00,
2013-03-21 20:57:00,32.2,26.5,30.16,WSW,248,1.8,5.4,79,0.00,,,0.00,WUHU216HW,2013-03-22 03:57:00,
2013-03-21 21:02:00,32.0,26.3,30.16,SW,225,2.5,5.4,79,0.00,,,0.00,WUHU216HW,2013-03-22 04:02:00,
2013-03-21 21:07:00,32.0,26.3,30.16,WSW,248,2.0,3.8,79,0.00,,,0.00,WUHU216HW,2013-03-22 04:07:00,
2013-03-21 21:12:00,31.9,25.8,30.17,SW,225,1.1,3.8,78,0.00,,,0.00,WUHU216HW,2013-03-22 04:12:00,
2013-03-21 21:17:00,31.9,25.8,30.17,WSW,248,1.6,3.6,78,0.00,,,0.00,WUHU216HW,2013-03-22 04:17:00,
2013-03-21 21:22:00,31.7,25.7,30.17,SW,225,1.1,2.5,78,0.00,,,0.00,WUHU216HW,2013-03-22 04:22:00,
2013-03-21 21:27:00,32.0,26.0,30.17,NW,315,2.9,5.4,78,0.00,,,0.00,WUHU216HW,2013-03-22 04:27:00,
2013-03-21 21:32:00,32.0,26.0,30.17,WNW,293,3.1,5.4,78,0.00,,,0.00,WUHU216HW,2013-03-22 04:32:00,
2013-03-21 21:37:00,32.4,25.7,30.17,West,270,2.5,5.6,76,0.00,,,0.00,WUHU216HW,2013-03-22 04:37:00,
2013-03-21 21:42:00,32.4,25.4,30.17,SSW,203,2.0,6.3,75,0.00,,,0.00,WUHU216HW,2013-03-22 04:42:00,
2013-03-21 21:47:00,32.0,25.4,30.17,SW,225,2.2,6.3,76,0.00,,,0.00,WUHU216HW,2013-03-22 04:47:00,
2013-03-21 21:52:00,31.7,25.3,30.17,SW,225,3.4,3.4,77,0.00,,,0.00,WUHU216HW,2013-03-22 04:52:00,
2013-03-21 21:57:00,31.5,25.5,30.17,SW,225,0.9,3.4,78,0.00,,,0.00,WUHU216HW,2013-03-22 04:57:00,
2013-03-21 22:02:00,31.3,25.3,30.17,SW,225,4.9,4.9,78,0.00,,,0.00,WUHU216HW,2013-03-22 05:02:00,
2013-03-21 22:07:00,31.0,25.2,30.17,WSW,248,5.4,5.4,79,0.00,,,0.00,WUHU216HW,2013-03-22 05:07:00,
2013-03-21 22:12:00,31.0,25.2,30.18,SW,225,2.0,5.4,79,0.00,,,0.00,WUHU216HW,2013-03-22 05:12:00,
2013-03-21 22:17:00,31.0,25.2,30.18,South,180,2.9,4.0,79,0.00,,,0.00,WUHU216HW,2013-03-22 05:17:00,
2013-03-21 22:22:00,30.8,24.8,30.18,SSW,203,2.0,2.9,78,0.00,,,0.00,WUHU216HW,2013-03-22 05:22:00,
2013-03-21 22:27:00,30.6,24.6,30.18,South,180,3.1,3.1,78,0.00,,,0.00,WUHU216HW,2013-03-22 05:27:00,
2013-03-21 22:32:00,30.6,24.8,30.18,SW,225,4.0,4.0,79,0.00,,,0.00,WUHU216HW,2013-03-22 05:32:00,
2013-03-21 22:37:00,30.6,24.6,30.18,SSW,203,1.8,4.0,78,0.00,,,0.00,WUHU216HW,2013-03-22 05:37:00,
2013-03-21 22:42:00,30.4,24.4,30.18,SSW,203,2.9,5.4,78,0.00,,,0.00,WUHU216HW,2013-03-22 05:42:00,
2013-03-21 22:47:00,30.4,24.4,30.18,SW,225,3.8,5.4,78,0.00,,,0.00,WUHU216HW,2013-03-22 05:47:00,
2013-03-21 22:52:00,30.2,24.5,30.18,SW,225,2.5,5.1,79,0.00,,,0.00,WUHU216HW,2013-03-22 05:52:00,
2013-03-21 22:57:00,30.1,24.9,30.18,SW,225,4.0,5.6,81,0.00,,,0.00,WUHU216HW,2013-03-22 05:57:00,
2013-03-21 23:02:00,29.9,25.0,30.19,SW,225,3.4,5.6,82,0.00,,,0.00,WUHU216HW,2013-03-22 06:02:00,
2013-03-21 23:07:00,29.9,25.0,30.19,SW,225,3.6,4.3,82,0.00,,,0.00,WUHU216HW,2013-03-22 06:07:00,
2013-03-21 23:12:00,29.7,24.8,30.18,SSW,203,1.8,4.0,82,0.00,,,0.00,WUHU216HW,2013-03-22 06:12:00,
2013-03-21 23:17:00,29.7,24.8,30.18,SSW,203,1.1,4.0,82,0.00,,,0.00,WUHU216HW,2013-03-22 06:17:00,
2013-03-21 23:22:00,29.5,24.7,30.18,SSW,203,2.5,2.7,82,0.00,,,0.00,WUHU216HW,2013-03-22 06:22:00,
2013-03-21 23:27:00,29.5,24.4,30.18,SSW,203,2.7,3.8,81,0.00,,,0.00,WUHU216HW,2013-03-22 06:27:00,
2013-03-21 23:32:00,29.5,24.4,30.18,SSW,203,1.1,3.8,81,0.00,,,0.00,WUHU216HW,2013-03-22 06:32:00,
2013-03-21 23:37:00,29.3,24.2,30.18,SSW,203,2.0,3.6,81,0.00,,,0.00,WUHU216HW,2013-03-22 06:37:00,
2013-03-21 23:42:00,29.3,24.2,30.18,SSW,203,3.8,3.8,81,0.00,,,0.00,WUHU216HW,2013-03-22 06:42:00,
2013-03-21 23:47:00,29.2,24.0,30.18,SSW,203,0.4,4.7,81,0.00,,,0.00,WUHU216HW,2013-03-22 06:47:00,
2013-03-21 23:52:00,29.2,23.8,30.18,SSW,203,1.1,4.7,80,0.00,,,0.00,WUHU216HW,2013-03-22 06:52:00,
2013-03-21 23:57:00,29.2,23.5,30.18,SW,225,3.4,5.1,79,0.00,,,0.00,WUHU216HW,2013-03-22 06:57:00,